createdAt,value
2019-02-23T00:00:33.545Z,-1.40
2019-02-23T00:03:02.234Z,-1.37
2019-02-23T00:05:31.170Z,-1.43
2019-02-23T00:07:59.809Z,-1.26
2019-02-23T00:10:28.433Z,-1.26
2019-02-23T00:12:57.085Z,-1.30
2019-02-23T00:15:25.615Z,-1.31
2019-02-23T00:17:54.236Z,-1.13
2019-02-23T00:20:22.883Z,-1.21
2019-02-23T00:22:51.524Z,-1.18
2019-02-23T00:25:20.154Z,-1.39
2019-02-23T00:27:48.791Z,-1.15
2019-02-23T00:30:17.366Z,-1.32
2019-02-23T00:32:45.960Z,-1.35
2019-02-23T00:35:14.956Z,-1.34
2019-02-23T00:37:45.078Z,-1.24
2019-02-23T00:40:13.622Z,-1.28
2019-02-23T00:42:42.637Z,-1.17
2019-02-23T00:45:11.496Z,-1.19
2019-02-23T00:47:40.118Z,-1.20
2019-02-23T00:50:08.854Z,-1.25
2019-02-23T00:52:37.539Z,-1.26
2019-02-23T00:55:07.494Z,-1.31
2019-02-23T00:57:37.323Z,-1.17
2019-02-23T01:00:11.257Z,-1.07
2019-02-23T01:02:40.077Z,-1.20
2019-02-23T01:05:09.011Z,-1.14
2019-02-23T01:07:37.637Z,-1.07
2019-02-23T01:10:09.046Z,-1.19
2019-02-23T01:12:37.587Z,-1.05
2019-02-23T01:15:09.375Z,-1.25
2019-02-23T01:17:38.069Z,-1.30
2019-02-23T01:20:09.326Z,-1.21
2019-02-23T01:22:38.180Z,-1.26
2019-02-23T01:25:07.312Z,-1.37
2019-02-23T01:27:36.025Z,-1.35
2019-02-23T01:30:06.339Z,-1.42
2019-02-23T01:32:34.844Z,-1.31
2019-02-23T01:35:03.436Z,-1.38
2019-02-23T01:37:32.002Z,-1.46
2019-02-23T01:40:00.458Z,-1.39
2019-02-23T01:42:28.977Z,-1.54
2019-02-23T01:44:57.434Z,-1.56
2019-02-23T01:47:26.113Z,-1.58
2019-02-23T01:49:58.803Z,-1.63
2019-02-23T01:52:25.020Z,-1.66
2019-02-23T01:54:53.584Z,-1.67
2019-02-23T01:57:22.212Z,-1.78
2019-02-23T01:59:50.744Z,-1.94
2019-02-23T02:02:19.417Z,-1.91
2019-02-23T02:04:48.046Z,-1.88
2019-02-23T02:07:16.762Z,-1.85
2019-02-23T02:09:45.303Z,-1.83
2019-02-23T02:12:15.738Z,-1.84
2019-02-23T02:14:44.375Z,-1.88
2019-02-23T02:17:13.202Z,-1.94
2019-02-23T02:19:41.774Z,-1.92
2019-02-23T02:22:10.474Z,-1.88
2019-02-23T02:24:39.050Z,-1.91
2019-02-23T02:27:08.236Z,-1.90
2019-02-23T02:29:37.214Z,-2.09
2019-02-23T02:32:05.826Z,-2.00
2019-02-23T02:34:34.797Z,-1.92
2019-02-23T02:37:03.475Z,-1.99
2019-02-23T02:39:32.077Z,-1.99
2019-02-23T02:42:00.812Z,-2.05
2019-02-23T02:44:29.356Z,-2.03
2019-02-23T02:46:57.894Z,-2.09
2019-02-23T02:49:26.596Z,-2.16
2019-02-23T02:51:55.181Z,-2.14
2019-02-23T02:54:23.787Z,-2.12
2019-02-23T02:56:52.354Z,-2.14
2019-02-23T02:59:20.947Z,-2.20
2019-02-23T03:01:49.607Z,-2.17
2019-02-23T03:04:18.219Z,-2.23
2019-02-23T03:06:46.883Z,-2.28
2019-02-23T03:09:15.589Z,-2.34
2019-02-23T03:11:44.275Z,-2.33
2019-02-23T03:14:12.878Z,-2.37
2019-02-23T03:16:41.534Z,-2.35
2019-02-23T03:19:10.152Z,-2.29
2019-02-23T03:21:38.819Z,-2.33
2019-02-23T03:24:07.403Z,-2.32
2019-02-23T03:26:35.971Z,-2.30
2019-02-23T03:29:04.564Z,-2.31
2019-02-23T03:31:33.355Z,-2.34
2019-02-23T03:34:01.934Z,-2.47
2019-02-23T03:36:30.500Z,-2.47
2019-02-23T03:38:59.099Z,-2.39
2019-02-23T03:41:27.830Z,-2.37
2019-02-23T03:43:56.348Z,-2.42
2019-02-23T03:46:24.873Z,-2.32
2019-02-23T03:48:53.439Z,-2.36
2019-02-23T03:51:21.941Z,-2.43
2019-02-23T03:53:50.515Z,-2.46
2019-02-23T03:56:19.203Z,-2.56
2019-02-23T03:58:47.789Z,-2.53
2019-02-23T04:01:16.875Z,-2.58
2019-02-23T04:03:45.439Z,-2.50
2019-02-23T04:06:13.950Z,-2.45
2019-02-23T04:08:42.563Z,-2.37
2019-02-23T04:11:11.094Z,-2.33
2019-02-23T04:13:39.612Z,-2.53
2019-02-23T04:16:08.093Z,-2.62
2019-02-23T04:18:36.616Z,-2.35
2019-02-23T04:21:05.086Z,-2.39
2019-02-23T04:23:33.624Z,-2.30
2019-02-23T04:26:02.273Z,-2.26
2019-02-23T04:28:30.768Z,-2.28
2019-02-23T04:30:59.218Z,-2.29
2019-02-23T04:33:27.729Z,-2.44
2019-02-23T04:35:56.202Z,-2.36
2019-02-23T04:38:24.697Z,-2.25
2019-02-23T04:40:53.177Z,-2.22
2019-02-23T04:43:21.684Z,-2.47
2019-02-23T04:45:50.140Z,-2.49
2019-02-23T04:48:18.649Z,-2.45
2019-02-23T04:50:47.101Z,-2.30
2019-02-23T04:53:15.646Z,-2.31
2019-02-23T04:55:44.102Z,-2.22
2019-02-23T04:58:12.668Z,-2.29
2019-02-23T05:00:41.130Z,-2.36
2019-02-23T05:03:09.669Z,-2.44
2019-02-23T05:05:38.170Z,-2.50
2019-02-23T05:08:06.740Z,-2.49
2019-02-23T05:10:35.335Z,-2.44
2019-02-23T05:13:03.937Z,-2.46
2019-02-23T05:15:33.333Z,-2.52
2019-02-23T05:18:01.914Z,-2.62
2019-02-23T05:20:30.416Z,-2.52
2019-02-23T05:22:59.330Z,-2.44
2019-02-23T05:25:27.844Z,-2.71
2019-02-23T05:27:56.426Z,-2.64
2019-02-23T05:30:24.921Z,-2.71
2019-02-23T05:32:53.502Z,-2.65
2019-02-23T05:35:22.032Z,-2.73
2019-02-23T05:37:50.584Z,-2.70
2019-02-23T05:40:19.095Z,-2.74
2019-02-23T05:42:47.676Z,-2.68
2019-02-23T05:45:16.199Z,-2.51
2019-02-23T05:47:44.739Z,-2.77
2019-02-23T05:50:13.282Z,-2.85
2019-02-23T05:52:41.878Z,-2.72
2019-02-23T05:55:10.443Z,-2.77
2019-02-23T05:57:38.993Z,-2.71
2019-02-23T06:00:11.203Z,-2.79
2019-02-23T06:02:39.832Z,-2.78
2019-02-23T06:05:08.402Z,-2.72
2019-02-23T06:07:37.039Z,-2.74
2019-02-23T06:10:08.380Z,-2.81
2019-02-23T06:12:36.973Z,-2.77
2019-02-23T06:15:08.897Z,-2.49
2019-02-23T06:17:37.528Z,-2.53
2019-02-23T06:20:07.868Z,-2.52
2019-02-23T06:22:36.423Z,-2.60
2019-02-23T06:25:07.288Z,-2.48
2019-02-23T06:27:35.957Z,-2.73
2019-02-23T06:30:07.293Z,-2.65
2019-02-23T06:32:35.861Z,-2.53
2019-02-23T06:35:05.713Z,-2.53
2019-02-23T06:37:34.301Z,-2.77
2019-02-23T06:40:02.898Z,-2.75
2019-02-23T06:42:31.558Z,-2.59
2019-02-23T06:45:00.273Z,-2.52
2019-02-23T06:47:28.924Z,-2.62
2019-02-23T06:49:57.542Z,-2.53
2019-02-23T06:52:26.099Z,-2.45
2019-02-23T06:54:54.691Z,-2.67
2019-02-23T06:57:23.281Z,-2.69
2019-02-23T06:59:51.888Z,-2.55
2019-02-23T07:02:20.530Z,-2.39
2019-02-23T07:04:49.138Z,-2.31
2019-02-23T07:07:17.716Z,-2.09
2019-02-23T07:09:46.296Z,-2.10
2019-02-23T07:12:14.888Z,-2.20
2019-02-23T07:14:43.464Z,-2.03
2019-02-23T07:17:12.132Z,-1.96
2019-02-23T07:19:40.727Z,-2.11
2019-02-23T07:22:15.408Z,-2.22
2019-02-23T07:24:39.640Z,-1.99
2019-02-23T07:27:08.436Z,-2.00
2019-02-23T07:29:37.016Z,-2.07
2019-02-23T07:32:05.675Z,-2.07
2019-02-23T07:34:34.280Z,-2.06
2019-02-23T07:37:02.949Z,-1.91
2019-02-23T07:39:31.551Z,-1.85
2019-02-23T07:42:00.128Z,-2.06
2019-02-23T07:44:28.723Z,-1.97
2019-02-23T07:46:57.508Z,-1.85
2019-02-23T07:49:26.070Z,-1.75
2019-02-23T07:51:54.679Z,-1.77
2019-02-23T07:54:23.656Z,-1.60
2019-02-23T07:56:52.253Z,-1.56
2019-02-23T07:59:20.811Z,-1.61
2019-02-23T08:01:49.429Z,-1.69
2019-02-23T08:04:17.997Z,-1.62
2019-02-23T08:06:46.584Z,-1.69
2019-02-23T08:09:15.151Z,-1.60
2019-02-23T08:11:43.980Z,-1.26
2019-02-23T08:14:12.519Z,-1.28
2019-02-23T08:16:41.165Z,-1.23
2019-02-23T08:19:09.709Z,-1.13
2019-02-23T08:21:38.294Z,-0.89
2019-02-23T08:24:06.852Z,-0.91
2019-02-23T08:26:35.716Z,-1.05
2019-02-23T08:29:04.745Z,-0.82
2019-02-23T08:31:33.352Z,-0.87
2019-02-23T08:34:01.936Z,-0.57
2019-02-23T08:36:32.739Z,-0.50
2019-02-23T08:39:01.363Z,-0.49
2019-02-23T08:41:30.022Z,-0.23
2019-02-23T08:43:58.652Z,-0.11
2019-02-23T08:46:27.290Z,0.19
2019-02-23T08:48:55.920Z,0.13
2019-02-23T08:51:24.592Z,0.04
2019-02-23T08:53:53.125Z,0.16
2019-02-23T08:56:21.728Z,0.09
2019-02-23T08:58:50.267Z,0.43
2019-02-23T09:01:18.891Z,0.38
2019-02-23T09:03:49.721Z,0.78
2019-02-23T09:06:17.803Z,0.73
2019-02-23T09:08:46.363Z,0.79
2019-02-23T09:11:14.972Z,0.77
2019-02-23T09:13:45.540Z,0.90
2019-02-23T09:16:14.289Z,0.93
2019-02-23T09:18:42.781Z,1.09
2019-02-23T09:21:11.422Z,1.21
2019-02-23T09:23:40.333Z,1.03
2019-02-23T09:26:08.927Z,1.21
2019-02-23T09:28:38.609Z,1.00
2019-02-23T09:31:07.226Z,1.42
2019-02-23T09:33:35.779Z,1.19
2019-02-23T09:36:04.457Z,1.74
2019-02-23T09:38:33.118Z,1.33
2019-02-23T09:41:01.902Z,1.40
2019-02-23T09:43:30.840Z,1.36
2019-02-23T09:45:59.475Z,1.71
2019-02-23T09:48:28.005Z,1.57
2019-02-23T09:50:57.107Z,1.91
2019-02-23T09:53:25.720Z,1.72
2019-02-23T09:55:54.375Z,1.60
2019-02-23T09:58:22.977Z,1.68
2019-02-23T10:00:51.657Z,2.03
2019-02-23T10:03:20.234Z,2.33
2019-02-23T10:05:48.818Z,2.22
2019-02-23T10:08:17.370Z,2.21
2019-02-23T10:10:46.188Z,2.71
2019-02-23T10:13:14.754Z,2.77
2019-02-23T10:15:43.514Z,2.96
2019-02-23T10:18:12.132Z,2.95
2019-02-23T10:20:40.826Z,3.07
2019-02-23T10:23:09.422Z,3.24
2019-02-23T10:25:37.976Z,2.96
2019-02-23T10:28:06.952Z,3.34
2019-02-23T10:30:35.587Z,2.92
2019-02-23T10:33:04.158Z,3.27
2019-02-23T10:35:32.838Z,2.92
2019-02-23T10:38:01.451Z,2.86
2019-02-23T10:40:30.089Z,3.08
2019-02-23T10:42:58.696Z,3.73
2019-02-23T10:45:27.364Z,3.50
2019-02-23T10:47:56.008Z,4.41
2019-02-23T10:50:24.627Z,4.55
2019-02-23T10:52:53.159Z,4.03
2019-02-23T10:55:21.788Z,3.87
2019-02-23T10:57:50.430Z,4.84
2019-02-23T11:00:20.806Z,6.17
2019-02-23T11:02:49.662Z,6.29
2019-02-23T11:05:18.883Z,5.23
2019-02-23T11:07:47.566Z,5.36
2019-02-23T11:10:16.739Z,6.77
2019-02-23T11:12:45.419Z,7.56
2019-02-23T11:15:17.027Z,8.12
2019-02-23T11:17:46.437Z,7.84
2019-02-23T11:20:15.641Z,6.37
2019-02-23T11:22:44.235Z,6.44
2019-02-23T11:25:12.953Z,6.81
2019-02-23T11:27:42.629Z,6.51
2019-02-23T11:30:13.311Z,8.11
2019-02-23T11:32:42.404Z,9.39
2019-02-23T11:35:13.103Z,8.97
2019-02-23T11:37:41.711Z,7.67
2019-02-23T11:40:12.088Z,8.04
2019-02-23T11:42:40.776Z,8.78
2019-02-23T11:45:10.896Z,8.32
2019-02-23T11:47:39.586Z,9.91
2019-02-23T11:50:12.393Z,9.78
2019-02-23T11:52:40.922Z,9.13
2019-02-23T11:55:09.896Z,9.57
2019-02-23T11:57:39.038Z,7.56
2019-02-23T12:00:12.904Z,8.08
2019-02-23T12:02:51.788Z,7.38
2019-02-23T12:05:12.178Z,7.41
2019-02-23T12:07:40.797Z,7.90
2019-02-23T12:10:16.199Z,9.55
2019-02-23T12:12:44.824Z,9.99
2019-02-23T12:15:13.670Z,12.16
2019-02-23T12:17:42.623Z,11.10
2019-02-23T12:20:11.642Z,11.76
2019-02-23T12:22:40.330Z,11.82
2019-02-23T12:25:09.219Z,10.70
2019-02-23T12:27:37.831Z,10.43
2019-02-23T12:30:09.598Z,9.58
2019-02-23T12:32:38.143Z,9.40
2019-02-23T12:35:09.633Z,8.37
2019-02-23T12:37:38.652Z,8.08
2019-02-23T12:40:08.817Z,7.91
2019-02-23T12:42:37.440Z,8.23
2019-02-23T12:45:09.174Z,7.52
2019-02-23T12:47:37.983Z,6.80
2019-02-23T12:50:10.010Z,6.81
2019-02-23T12:52:38.608Z,6.40
2019-02-23T12:55:09.317Z,6.35
2019-02-23T12:57:37.903Z,6.27
2019-02-23T13:00:09.922Z,6.44
2019-02-23T13:02:38.480Z,6.65
2019-02-23T13:05:07.473Z,6.35
2019-02-23T13:07:36.153Z,6.54
2019-02-23T13:10:07.802Z,6.35
2019-02-23T13:12:54.550Z,6.34
2019-02-23T13:15:29.431Z,5.54
2019-02-23T13:18:26.150Z,5.77
2019-02-23T13:21:15.974Z,5.85
2019-02-23T13:23:47.717Z,5.99
2019-02-23T13:26:37.281Z,6.36
2019-02-23T13:29:14.907Z,6.58
2019-02-23T13:31:49.733Z,6.57
2019-02-23T13:34:27.221Z,6.77
2019-02-23T13:37:05.038Z,6.63
2019-02-23T13:39:45.485Z,6.43
2019-02-23T13:42:29.506Z,6.39
2019-02-23T13:45:07.113Z,6.57
2019-02-23T13:47:56.557Z,6.36
2019-02-23T13:50:30.924Z,6.86
2019-02-23T13:53:22.114Z,7.98
2019-02-23T13:56:30.351Z,7.85
2019-02-23T13:59:20.121Z,7.29
2019-02-23T14:01:57.681Z,7.21
2019-02-23T14:05:02.831Z,6.29
2019-02-23T14:07:34.598Z,6.44
2019-02-23T14:10:09.266Z,6.19
2019-02-23T14:12:46.662Z,6.00
2019-02-23T14:15:39.305Z,5.79
2019-02-23T14:18:33.032Z,5.75
2019-02-23T14:21:16.039Z,5.52
2019-02-23T14:24:22.631Z,5.59
2019-02-23T14:27:00.137Z,5.71
2019-02-23T14:29:40.656Z,5.55
2019-02-23T14:32:29.237Z,5.36
2019-02-23T14:35:03.938Z,5.43
2019-02-23T14:37:41.860Z,5.32
2019-02-23T14:40:16.537Z,5.34
2019-02-23T14:42:48.350Z,5.39
2019-02-23T14:45:36.831Z,5.25
2019-02-23T14:48:29.676Z,5.36
2019-02-23T14:51:19.307Z,5.32
2019-02-23T14:54:19.593Z,5.42
2019-02-23T14:56:57.418Z,5.32
2019-02-23T14:59:29.193Z,5.29
2019-02-23T15:02:22.004Z,5.18
2019-02-23T15:05:18.110Z,5.24
2019-02-23T15:07:58.690Z,5.18
2019-02-23T15:10:49.888Z,5.16
2019-02-23T15:13:37.037Z,5.17
2019-02-23T15:16:25.181Z,5.25
2019-02-23T15:19:24.408Z,5.24
2019-02-23T15:22:11.347Z,5.13
2019-02-23T15:24:48.858Z,5.10
2019-02-23T15:27:20.845Z,5.06
2019-02-23T15:30:04.884Z,4.95
2019-02-23T15:33:02.355Z,4.83
2019-02-23T15:35:48.877Z,4.90
2019-02-23T15:38:37.048Z,4.60
2019-02-23T15:41:27.026Z,4.49
2019-02-23T15:44:25.666Z,4.41
2019-02-23T15:47:06.181Z,4.31
2019-02-23T15:49:35.360Z,4.35
2019-02-23T15:52:04.709Z,4.34
2019-02-23T15:54:33.426Z,4.38
2019-02-23T15:57:01.960Z,4.27
2019-02-23T15:59:30.538Z,4.08
2019-02-23T16:02:01.523Z,4.02
2019-02-23T16:04:30.185Z,4.01
2019-02-23T16:06:58.827Z,3.88
2019-02-23T16:09:29.667Z,3.75
2019-02-23T16:11:58.451Z,3.79
2019-02-23T16:14:27.046Z,3.74
2019-02-23T16:16:55.647Z,3.67
2019-02-23T16:19:24.265Z,3.70
2019-02-23T16:21:53.218Z,3.56
2019-02-23T16:24:21.858Z,3.49
2019-02-23T16:26:50.510Z,3.51
2019-02-23T16:29:19.018Z,3.56
2019-02-23T16:31:47.705Z,3.30
2019-02-23T16:34:16.230Z,3.44
2019-02-23T16:36:44.811Z,3.35
2019-02-23T16:39:13.458Z,3.34
2019-02-23T16:41:42.178Z,3.20
2019-02-23T16:44:10.811Z,3.17
2019-02-23T16:46:40.082Z,3.12
2019-02-23T16:49:08.795Z,3.04
2019-02-23T16:51:37.855Z,3.02
2019-02-23T16:54:06.458Z,2.89
2019-02-23T16:56:35.111Z,3.09
2019-02-23T16:59:03.742Z,2.97
2019-02-23T17:01:35.352Z,2.94
2019-02-23T17:04:04.006Z,2.92
2019-02-23T17:06:34.824Z,2.80
2019-02-23T17:09:04.116Z,2.73
2019-02-23T17:11:32.778Z,2.75
2019-02-23T17:14:01.482Z,2.82
2019-02-23T17:16:30.541Z,2.76
2019-02-23T17:18:59.134Z,2.58
2019-02-23T17:21:27.700Z,2.25
2019-02-23T17:23:56.285Z,2.51
2019-02-23T17:26:26.123Z,2.63
2019-02-23T17:28:55.135Z,2.55
2019-02-23T17:31:23.728Z,2.44
2019-02-23T17:33:52.279Z,2.20
2019-02-23T17:36:21.143Z,1.65
2019-02-23T17:38:49.787Z,1.66
2019-02-23T17:41:18.410Z,1.65
2019-02-23T17:43:47.006Z,1.21
2019-02-23T17:46:15.553Z,1.47
2019-02-23T17:48:44.363Z,1.50
2019-02-23T17:51:12.943Z,1.26
2019-02-23T17:53:41.501Z,1.11
2019-02-23T17:56:12.343Z,1.08
2019-02-23T17:58:41.326Z,0.96
2019-02-23T18:01:10.428Z,0.95
2019-02-23T18:03:39.051Z,0.83
2019-02-23T18:06:07.847Z,0.78
2019-02-23T18:08:37.805Z,0.80
2019-02-23T18:11:07.212Z,0.71
2019-02-23T18:13:37.205Z,0.67
2019-02-23T18:16:05.976Z,0.52
2019-02-23T18:18:34.897Z,0.49
2019-02-23T18:21:04.037Z,0.42
2019-02-23T18:23:32.997Z,0.43
2019-02-23T18:26:01.649Z,0.39
2019-02-23T18:28:30.248Z,0.37
2019-02-23T18:30:58.871Z,0.42
2019-02-23T18:33:27.578Z,0.40
2019-02-23T18:35:56.430Z,0.28
2019-02-23T18:38:25.687Z,0.37
2019-02-23T18:40:54.310Z,0.18
2019-02-23T18:43:22.988Z,0.23
2019-02-23T18:45:53.775Z,0.18
2019-02-23T18:48:22.719Z,0.13
2019-02-23T18:50:51.422Z,0.25
2019-02-23T18:53:20.470Z,0.08
2019-02-23T18:55:49.310Z,0.06
2019-02-23T18:58:17.937Z,-0.03
2019-02-23T19:00:46.706Z,0.09
2019-02-23T19:03:15.306Z,0.07
2019-02-23T19:05:49.859Z,0.00
2019-02-23T19:08:14.937Z,0.29
2019-02-23T19:10:46.740Z,-0.04
2019-02-23T19:13:15.892Z,-0.08
2019-02-23T19:15:44.602Z,-0.13
2019-02-23T19:18:13.409Z,0.14
2019-02-23T19:20:42.381Z,-0.09
2019-02-23T19:23:12.391Z,-0.04
2019-02-23T19:25:41.305Z,-0.01
2019-02-23T19:28:10.376Z,0.00
2019-02-23T19:30:39.162Z,-0.05
2019-02-23T19:33:07.968Z,-0.03
2019-02-23T19:35:38.615Z,0.12
2019-02-23T19:38:09.639Z,0.09
2019-02-23T19:40:38.648Z,0.06
2019-02-23T19:43:07.803Z,-0.05
2019-02-23T19:45:36.582Z,-0.29
2019-02-23T19:48:05.507Z,-0.35
2019-02-23T19:50:43.579Z,-0.31
2019-02-23T19:53:15.281Z,-0.28
2019-02-23T19:55:44.160Z,-0.29
2019-02-23T19:58:13.074Z,-0.32
2019-02-23T20:00:42.051Z,-0.39
2019-02-23T20:03:11.150Z,-0.45
2019-02-23T20:05:40.140Z,-0.33
2019-02-23T20:08:09.352Z,-0.33
2019-02-23T20:10:38.569Z,-0.43
2019-02-23T20:13:07.219Z,-0.38
2019-02-23T20:15:35.960Z,-0.47
2019-02-23T20:18:05.946Z,-0.47
2019-02-23T20:20:34.909Z,-0.51
2019-02-23T20:23:03.656Z,-0.47
2019-02-23T20:25:32.714Z,-0.51
2019-02-23T20:28:01.550Z,-0.60
2019-02-23T20:30:30.297Z,-0.63
2019-02-23T20:32:59.021Z,-0.62
2019-02-23T20:35:28.060Z,-0.73
2019-02-23T20:37:56.931Z,-0.71
2019-02-23T20:40:25.521Z,-0.71
2019-02-23T20:42:54.163Z,-0.69
2019-02-23T20:45:22.744Z,-0.76
2019-02-23T20:47:51.562Z,-0.79
2019-02-23T20:50:21.970Z,-0.77
2019-02-23T20:52:50.737Z,-0.83
2019-02-23T20:55:19.271Z,-0.86
2019-02-23T20:57:47.974Z,-0.92
2019-02-23T21:00:16.603Z,-0.93
2019-02-23T21:02:45.222Z,-0.94
2019-02-23T21:05:14.606Z,-0.97
2019-02-23T21:07:43.587Z,-0.96
2019-02-23T21:10:12.307Z,-0.98
2019-02-23T21:12:40.993Z,-0.94
2019-02-23T21:15:11.343Z,-0.99
2019-02-23T21:17:40.331Z,-0.99
2019-02-23T21:20:10.698Z,-1.04
2019-02-23T21:22:39.768Z,-1.00
2019-02-23T21:25:09.702Z,-1.06
2019-02-23T21:27:38.673Z,-1.16
2019-02-23T21:30:09.695Z,-1.13
2019-02-23T21:32:38.607Z,-1.09
2019-02-23T21:35:08.356Z,-1.05
2019-02-23T21:37:37.047Z,-1.15
2019-02-23T21:40:09.841Z,-1.17
2019-02-23T21:42:38.564Z,-1.21
2019-02-23T21:45:09.002Z,-1.18
2019-02-23T21:47:37.708Z,-1.23
2019-02-23T21:50:10.332Z,-1.25
2019-02-23T21:52:39.114Z,-1.16
2019-02-23T21:55:07.875Z,-1.27
2019-02-23T21:57:36.565Z,-1.22
2019-02-23T22:00:09.581Z,-1.27
2019-02-23T22:02:38.235Z,-1.26
2019-02-23T22:05:12.312Z,-1.28
2019-02-23T22:07:37.900Z,-1.39
2019-02-23T22:10:08.988Z,-1.32
2019-02-23T22:12:37.722Z,-1.41
2019-02-23T22:15:07.482Z,-1.36
2019-02-23T22:17:37.145Z,-1.37
2019-02-23T22:20:08.143Z,-1.38
2019-02-23T22:22:37.252Z,-1.38
2019-02-23T22:25:05.876Z,-1.43
2019-02-23T22:27:34.449Z,-1.40
2019-02-23T22:30:03.182Z,-1.38
2019-02-23T22:32:31.920Z,-1.56
2019-02-23T22:35:00.676Z,-1.48
2019-02-23T22:37:29.530Z,-1.42
2019-02-23T22:39:58.446Z,-1.47
2019-02-23T22:42:27.125Z,-1.54
2019-02-23T22:44:55.979Z,-1.53
2019-02-23T22:47:24.521Z,-1.53
2019-02-23T22:49:54.616Z,-1.58
2019-02-23T22:52:23.142Z,-1.55
2019-02-23T22:54:51.691Z,-1.52
2019-02-23T22:57:20.361Z,-1.62
2019-02-23T22:59:48.987Z,-1.64
2019-02-23T23:02:17.627Z,-1.66
2019-02-23T23:04:46.258Z,-1.67
2019-02-23T23:07:14.919Z,-1.58
2019-02-23T23:09:43.496Z,-1.63
2019-02-23T23:12:12.172Z,-1.68
2019-02-23T23:14:40.770Z,-1.66
2019-02-23T23:17:09.447Z,-1.82
2019-02-23T23:19:37.993Z,-1.81
2019-02-23T23:22:06.698Z,-1.83
2019-02-23T23:24:37.492Z,-1.84
2019-02-23T23:27:06.172Z,-1.87
2019-02-23T23:29:34.735Z,-1.80
2019-02-23T23:32:03.470Z,-1.78
2019-02-23T23:34:32.095Z,-1.78
2019-02-23T23:37:00.777Z,-1.86
2019-02-23T23:39:29.440Z,-1.94
2019-02-23T23:41:58.162Z,-1.87
2019-02-23T23:44:26.732Z,-1.83
2019-02-23T23:46:55.451Z,-1.75
2019-02-23T23:49:24.010Z,-1.86
2019-02-23T23:51:52.664Z,-1.87
2019-02-23T23:54:21.238Z,-1.91
2019-02-23T23:56:49.937Z,-1.82
2019-02-23T23:59:18.581Z,-1.90
